PAIW

Details ICAO PAIW (WAA)
Name WALES
Region USA (Alaska)
Timezone America/Nome (UTC-9.0)
Plans Departing 14
Arriving 8
Stats Elevation 22 ft / 7 m (AMSL)
Location 65.622585° -168.094939°
Runways 1
Magnetic Variation 8.769° E
Sunrise 2017-12-13 21:28:35 UTC / 2017-12-13 12:28:35 Local
Sunset 2017-12-14 00:47:50 UTC / 2017-12-13 15:47:50 Local
Advertisement - Login to hide

Runways

ID Width Length Bearing (true) Bearing (mag) Surface Threshold Offset Overrun Length
18 75 ft / 23 m 3,990 ft / 1,216 m 188.49° 179.72° Gravel 0 ft / 0 m 300 ft / 91 m
36 75 ft / 23 m 3,990 ft / 1,216 m 8.49° 359.72° Gravel 0 ft / 0 m 300 ft / 91 m

Map

Weather


0- 5 10 15 20 25 30 35+ Temperature / ° C

Clouds and Precipitation
Forecast for 2017-12-14 12:00 UTC. Updated an hour ago

Ground ~20,000 ft ~40,000 ft Winds

METAR

PAIW 140956Z AUTO 21009KT 9SM -SN OVC006 M02/M02 A2942 RMK AO2 UPB06E30SNE06B30 SLP965 P0000 T10221022 FZRANO

TAF

Not found

Frequencies

Unicom 123.00 MHz CTAF
Warning: Do not use this data for real-world aviation or navigation. No guarantee of current accuracy is given.